sensor_id;sensor_type;location;lat;lon;timestamp;pressure;altitude;pressure_sealevel;temperature;humidity
40918;BME280;26644;50.248;19.032;2023-03-20T00:00:45;98084.47;;;9.50;47.56
40918;BME280;26644;50.248;19.032;2023-03-20T00:03:53;98075.72;;;9.48;47.40
40918;BME280;26644;50.248;19.032;2023-03-20T00:06:58;98082.31;;;9.47;47.55
40918;BME280;26644;50.248;19.032;2023-03-20T00:10:08;98067.81;;;9.41;47.70
40918;BME280;26644;50.248;19.032;2023-03-20T00:13:20;98072.16;;;9.42;47.74
40918;BME280;26644;50.248;19.032;2023-03-20T00:16:32;98079.03;;;9.39;47.66
40918;BME280;26644;50.248;19.032;2023-03-20T00:19:38;98083.97;;;9.42;47.50
40918;BME280;26644;50.248;19.032;2023-03-20T00:22:44;98081.75;;;9.44;47.59
40918;BME280;26644;50.248;19.032;2023-03-20T00:25:51;98088.06;;;9.45;47.58
40918;BME280;26644;50.248;19.032;2023-03-20T00:28:57;98070.00;;;9.39;47.45
40918;BME280;26644;50.248;19.032;2023-03-20T00:32:02;98071.38;;;9.41;47.49
40918;BME280;26644;50.248;19.032;2023-03-20T00:35:17;98055.81;;;9.32;47.70
40918;BME280;26644;50.248;19.032;2023-03-20T00:38:24;98062.88;;;9.38;47.63
40918;BME280;26644;50.248;19.032;2023-03-20T00:41:43;98063.72;;;9.33;47.90
40918;BME280;26644;50.248;19.032;2023-03-20T00:44:54;98074.41;;;9.35;47.67
40918;BME280;26644;50.248;19.032;2023-03-20T00:48:02;98070.56;;;9.36;47.75
40918;BME280;26644;50.248;19.032;2023-03-20T00:51:07;98059.06;;;9.28;47.83
40918;BME280;26644;50.248;19.032;2023-03-20T00:54:14;98067.84;;;9.36;47.72
40918;BME280;26644;50.248;19.032;2023-03-20T00:57:26;98059.84;;;9.39;47.58
40918;BME280;26644;50.248;19.032;2023-03-20T01:00:38;98052.69;;;9.43;47.46
40918;BME280;26644;50.248;19.032;2023-03-20T01:03:45;98060.41;;;9.41;47.42
40918;BME280;26644;50.248;19.032;2023-03-20T01:06:50;98051.09;;;9.42;47.58
40918;BME280;26644;50.248;19.032;2023-03-20T01:09:55;98049.72;;;9.45;47.39
40918;BME280;26644;50.248;19.032;2023-03-20T01:13:12;98045.31;;;9.49;47.40
40918;BME280;26644;50.248;19.032;2023-03-20T01:16:24;98048.56;;;9.51;47.36
40918;BME280;26644;50.248;19.032;2023-03-20T01:19:30;98049.13;;;9.53;47.29
40918;BME280;26644;50.248;19.032;2023-03-20T01:22:35;98051.00;;;9.58;47.11
40918;BME280;26644;50.248;19.032;2023-03-20T01:25:41;98056.22;;;9.59;47.20
40918;BME280;26644;50.248;19.032;2023-03-20T01:28:49;98057.31;;;9.58;47.44
40918;BME280;26644;50.248;19.032;2023-03-20T01:31:55;98045.78;;;9.56;47.21
40918;BME280;26644;50.248;19.032;2023-03-20T01:35:01;98037.88;;;9.55;47.20
40918;BME280;26644;50.248;19.032;2023-03-20T01:38:12;98054.78;;;9.67;47.13
40918;BME280;26644;50.248;19.032;2023-03-20T01:41:19;98038.66;;;9.60;46.99
40918;BME280;26644;50.248;19.032;2023-03-20T01:44:32;98060.81;;;9.69;47.24
40918;BME280;26644;50.248;19.032;2023-03-20T01:47:40;98046.88;;;9.60;47.35
40918;BME280;26644;50.248;19.032;2023-03-20T01:50:47;98055.84;;;9.71;47.19
40918;BME280;26644;50.248;19.032;2023-03-20T01:53:55;98063.81;;;9.73;46.93
40918;BME280;26644;50.248;19.032;2023-03-20T01:57:12;98076.41;;;9.74;47.03
40918;BME280;26644;50.248;19.032;2023-03-20T02:00:22;98074.50;;;9.74;47.15
40918;BME280;26644;50.248;19.032;2023-03-20T02:03:28;98076.94;;;9.76;46.88
40918;BME280;26644;50.248;19.032;2023-03-20T02:07:16;98067.06;;;9.75;47.05
40918;BME280;26644;50.248;19.032;2023-03-20T02:10:40;98071.75;;;9.74;47.13
40918;BME280;26644;50.248;19.032;2023-03-20T02:14:00;98077.53;;;9.73;47.22
40918;BME280;26644;50.248;19.032;2023-03-20T02:17:19;98076.97;;;9.71;47.34
40918;BME280;26644;50.248;19.032;2023-03-20T02:20:49;98070.09;;;9.73;47.29
40918;BME280;26644;50.248;19.032;2023-03-20T02:24:49;98076.66;;;9.77;47.12
40918;BME280;26644;50.248;19.032;2023-03-20T02:36:25;98068.97;;;9.85;46.92
40918;BME280;26644;50.248;19.032;2023-03-20T02:39:57;98071.97;;;9.83;46.85
40918;BME280;26644;50.248;19.032;2023-03-20T02:43:20;98077.22;;;9.80;47.01
40918;BME280;26644;50.248;19.032;2023-03-20T02:46:43;98065.13;;;9.81;47.04
40918;BME280;26644;50.248;19.032;2023-03-20T02:50:11;98053.09;;;9.76;47.04
40918;BME280;26644;50.248;19.032;2023-03-20T02:53:33;98061.06;;;9.78;47.15
40918;BME280;26644;50.248;19.032;2023-03-20T02:57:00;98035.69;;;9.52;47.55
40918;BME280;26644;50.248;19.032;2023-03-20T03:00:17;98046.38;;;9.53;47.78
40918;BME280;26644;50.248;19.032;2023-03-20T03:03:36;98045.28;;;9.54;47.71
40918;BME280;26644;50.248;19.032;2023-03-20T03:06:49;98056.22;;;9.59;47.73
40918;BME280;26644;50.248;19.032;2023-03-20T03:10:02;98054.28;;;9.60;47.65
40918;BME280;26644;50.248;19.032;2023-03-20T03:13:20;98045.53;;;9.53;47.69
40918;BME280;26644;50.248;19.032;2023-03-20T03:16:35;98058.97;;;9.59;47.90
40918;BME280;26644;50.248;19.032;2023-03-20T03:19:47;98065.53;;;9.58;47.88
40918;BME280;26644;50.248;19.032;2023-03-20T03:22:56;98059.22;;;9.58;47.68
40918;BME280;26644;50.248;19.032;2023-03-20T03:26:05;98064.69;;;9.58;47.67
40918;BME280;26644;50.248;19.032;2023-03-20T03:29:17;98050.75;;;9.54;47.82
40918;BME280;26644;50.248;19.032;2023-03-20T03:32:29;98061.97;;;9.58;47.68
40918;BME280;26644;50.248;19.032;2023-03-20T03:35:37;98051.31;;;9.51;47.81
40918;BME280;26644;50.248;19.032;2023-03-20T03:38:53;98050.22;;;9.47;47.92
40918;BME280;26644;50.248;19.032;2023-03-20T03:42:08;98048.56;;;9.51;47.92
40918;BME280;26644;50.248;19.032;2023-03-20T03:45:32;98047.78;;;9.45;48.43
40918;BME280;26644;50.248;19.032;2023-03-20T03:48:48;98053.28;;;9.40;48.37
40918;BME280;26644;50.248;19.032;2023-03-20T03:52:03;98046.47;;;9.33;48.54
40918;BME280;26644;50.248;19.032;2023-03-20T03:55:17;98051.66;;;9.34;48.64
40918;BME280;26644;50.248;19.032;2023-03-20T03:58:58;98050.28;;;9.37;48.37
40918;BME280;26644;50.248;19.032;2023-03-20T04:02:10;98055.22;;;9.40;48.36
40918;BME280;26644;50.248;19.032;2023-03-20T04:05:19;98063.72;;;9.38;48.42
40918;BME280;26644;50.248;19.032;2023-03-20T04:08:25;98060.97;;;9.38;48.43
40918;BME280;26644;50.248;19.032;2023-03-20T04:11:31;98059.88;;;9.34;48.70
40918;BME280;26644;50.248;19.032;2023-03-20T04:14:37;98058.53;;;9.32;48.63
40918;BME280;26644;50.248;19.032;2023-03-20T04:17:45;98055.25;;;9.30;48.75
40918;BME280;26644;50.248;19.032;2023-03-20T04:20:51;98047.03;;;9.30;48.88
40918;BME280;26644;50.248;19.032;2023-03-20T04:23:57;98054.16;;;9.31;49.17
40918;BME280;26644;50.248;19.032;2023-03-20T04:27:01;98063.44;;;9.35;48.99
40918;BME280;26644;50.248;19.032;2023-03-20T04:30:09;98052.78;;;9.33;49.01
40918;BME280;26644;50.248;19.032;2023-03-20T04:33:36;98066.47;;;9.33;49.19
40918;BME280;26644;50.248;19.032;2023-03-20T04:37:00;98050.31;;;9.32;49.24
40918;BME280;26644;50.248;19.032;2023-03-20T04:40:18;98062.09;;;9.32;49.09
40918;BME280;26644;50.248;19.032;2023-03-20T04:43:24;98061.28;;;9.32;49.36
40918;BME280;26644;50.248;19.032;2023-03-20T04:46:28;98061.81;;;9.28;49.48
40918;BME280;26644;50.248;19.032;2023-03-20T04:49:39;98066.22;;;9.24;49.55
40918;BME280;26644;50.248;19.032;2023-03-20T04:52:44;98062.97;;;9.22;49.52
40918;BME280;26644;50.248;19.032;2023-03-20T04:55:51;98070.88;;;9.24;49.70
40918;BME280;26644;50.248;19.032;2023-03-20T04:58:55;98063.78;;;9.18;50.02
40918;BME280;26644;50.248;19.032;2023-03-20T05:02:01;98058.31;;;9.13;50.00
40918;BME280;26644;50.248;19.032;2023-03-20T05:05:09;98075.03;;;9.16;50.13
40918;BME280;26644;50.248;19.032;2023-03-20T05:08:15;98080.50;;;9.11;50.53
40918;BME280;26644;50.248;19.032;2023-03-20T05:11:21;98083.81;;;9.08;50.58
40918;BME280;26644;50.248;19.032;2023-03-20T05:14:49;98082.72;;;9.04;50.84
40918;BME280;26644;50.248;19.032;2023-03-20T05:17:57;98084.91;;;9.02;50.96
40918;BME280;26644;50.248;19.032;2023-03-20T05:21:16;98076.69;;;9.02;51.11
40918;BME280;26644;50.248;19.032;2023-03-20T05:24:53;98081.38;;;9.01;51.04
40918;BME280;26644;50.248;19.032;2023-03-20T05:28:17;98080.00;;;9.04;51.20
40918;BME280;26644;50.248;19.032;2023-03-20T05:31:27;98068.75;;;9.05;51.14
40918;BME280;26644;50.248;19.032;2023-03-20T05:34:42;98074.44;;;9.19;50.95
40918;BME280;26644;50.248;19.032;2023-03-20T05:38:00;98073.31;;;9.36;50.68
40918;BME280;26644;50.248;19.032;2023-03-20T05:41:28;98081.97;;;9.58;50.54
40918;BME280;26644;50.248;19.032;2023-03-20T05:44:58;98093.97;;;9.73;50.56
40918;BME280;26644;50.248;19.032;2023-03-20T05:48:21;98089.22;;;9.89;50.21
40918;BME280;26644;50.248;19.032;2023-03-20T05:51:45;98094.56;;;10.09;50.17
40918;BME280;26644;50.248;19.032;2023-03-20T05:55:07;98092.78;;;10.29;49.89
40918;BME280;26644;50.248;19.032;2023-03-20T05:58:30;98081.66;;;10.50;49.78
40918;BME280;26644;50.248;19.032;2023-03-20T06:01:53;98086.72;;;10.67;49.57
40918;BME280;26644;50.248;19.032;2023-03-20T06:05:01;98092.91;;;10.83;49.61
40918;BME280;26644;50.248;19.032;2023-03-20T06:08:16;98088.59;;;11.01;49.69
40918;BME280;26644;50.248;19.032;2023-03-20T06:11:23;98088.97;;;11.18;49.37
40918;BME280;26644;50.248;19.032;2023-03-20T06:14:29;98089.44;;;11.25;49.96
40918;BME280;26644;50.248;19.032;2023-03-20T06:17:39;98109.91;;;11.38;50.45
40918;BME280;26644;50.248;19.032;2023-03-20T06:20:51;98103.00;;;11.41;50.48
40918;BME280;26644;50.248;19.032;2023-03-20T06:23:57;98110.25;;;11.32;50.28
40918;BME280;26644;50.248;19.032;2023-03-20T06:27:06;98104.44;;;11.09;50.21
40918;BME280;26644;50.248;19.032;2023-03-20T06:30:13;98110.78;;;11.09;50.10
40918;BME280;26644;50.248;19.032;2023-03-20T06:33:21;98128.16;;;11.00;50.11
40918;BME280;26644;50.248;19.032;2023-03-20T06:36:34;98117.69;;;10.77;50.08
40918;BME280;26644;50.248;19.032;2023-03-20T06:39:45;98131.19;;;10.69;50.64
40918;BME280;26644;50.248;19.032;2023-03-20T06:42:53;98131.28;;;10.58;51.00
40918;BME280;26644;50.248;19.032;2023-03-20T06:46:07;98140.69;;;10.47;51.91
40918;BME280;26644;50.248;19.032;2023-03-20T06:49:12;98139.84;;;10.47;52.26
40918;BME280;26644;50.248;19.032;2023-03-20T06:52:19;98132.78;;;10.40;52.15
40918;BME280;26644;50.248;19.032;2023-03-20T06:55:46;98149.44;;;10.49;52.35
40918;BME280;26644;50.248;19.032;2023-03-20T06:58:55;98156.28;;;10.57;52.63
40918;BME280;26644;50.248;19.032;2023-03-20T07:02:00;98154.56;;;10.66;53.18
40918;BME280;26644;50.248;19.032;2023-03-20T07:05:08;98150.38;;;10.74;53.42
40918;BME280;26644;50.248;19.032;2023-03-20T07:08:13;98143.47;;;10.82;53.47
40918;BME280;26644;50.248;19.032;2023-03-20T07:11:18;98159.31;;;10.90;54.40
40918;BME280;26644;50.248;19.032;2023-03-20T07:14:30;98154.84;;;10.99;54.88
40918;BME280;26644;50.248;19.032;2023-03-20T07:17:40;98151.75;;;11.06;55.19
40918;BME280;26644;50.248;19.032;2023-03-20T07:20:45;98161.28;;;11.14;55.28
40918;BME280;26644;50.248;19.032;2023-03-20T07:23:51;98155.22;;;11.17;55.27
40918;BME280;26644;50.248;19.032;2023-03-20T07:26:56;98163.50;;;11.11;55.55
40918;BME280;26644;50.248;19.032;2023-03-20T07:30:06;98167.69;;;11.04;55.86
40918;BME280;26644;50.248;19.032;2023-03-20T07:33:13;98168.81;;;11.03;56.26
40918;BME280;26644;50.248;19.032;2023-03-20T07:36:20;98170.38;;;11.09;56.22
40918;BME280;26644;50.248;19.032;2023-03-20T07:39:25;98164.56;;;11.16;56.46
40918;BME280;26644;50.248;19.032;2023-03-20T07:42:53;98174.00;;;11.04;57.06
40918;BME280;26644;50.248;19.032;2023-03-20T07:46:19;98179.63;;;10.89;58.38
40918;BME280;26644;50.248;19.032;2023-03-20T07:49:25;98178.91;;;10.78;59.01
40918;BME280;26644;50.248;19.032;2023-03-20T07:52:30;98179.53;;;10.70;59.40
40918;BME280;26644;50.248;19.032;2023-03-20T07:55:35;98178.16;;;10.67;59.44
40918;BME280;26644;50.248;19.032;2023-03-20T07:58:40;98179.31;;;10.61;60.04
40918;BME280;26644;50.248;19.032;2023-03-20T08:01:48;98181.28;;;10.55;60.08
40918;BME280;26644;50.248;19.032;2023-03-20T08:04:53;98175.22;;;10.53;60.48
40918;BME280;26644;50.248;19.032;2023-03-20T08:07:58;98171.94;;;10.56;60.75
40918;BME280;26644;50.248;19.032;2023-03-20T08:11:04;98175.47;;;10.62;61.55
40918;BME280;26644;50.248;19.032;2023-03-20T08:14:10;98171.63;;;10.63;61.99
40918;BME280;26644;50.248;19.032;2023-03-20T08:17:17;98161.38;;;10.74;61.98
40918;BME280;26644;50.248;19.032;2023-03-20T08:20:24;98163.19;;;10.84;61.91
40918;BME280;26644;50.248;19.032;2023-03-20T08:23:28;98165.06;;;10.93;62.33
40918;BME280;26644;50.248;19.032;2023-03-20T08:26:34;98171.69;;;11.17;62.07
40918;BME280;26644;50.248;19.032;2023-03-20T08:29:39;98174.84;;;11.29;61.89
40918;BME280;26644;50.248;19.032;2023-03-20T08:32:47;98172.59;;;11.36;61.70
40918;BME280;26644;50.248;19.032;2023-03-20T08:35:55;98173.19;;;11.33;62.19
40918;BME280;26644;50.248;19.032;2023-03-20T08:39:02;98161.91;;;11.35;62.31
40918;BME280;26644;50.248;19.032;2023-03-20T08:42:07;98175.00;;;11.43;62.24
40918;BME280;26644;50.248;19.032;2023-03-20T08:45:12;98175.75;;;11.49;62.21
40918;BME280;26644;50.248;19.032;2023-03-20T08:48:20;98166.09;;;11.51;62.01
40918;BME280;26644;50.248;19.032;2023-03-20T08:51:26;98171.59;;;11.75;61.82
40918;BME280;26644;50.248;19.032;2023-03-20T08:54:31;98177.47;;;11.93;61.71
40918;BME280;26644;50.248;19.032;2023-03-20T08:57:37;98166.56;;;12.07;61.16
40918;BME280;26644;50.248;19.032;2023-03-20T09:00:43;98166.56;;;12.07;61.33
40918;BME280;26644;50.248;19.032;2023-03-20T09:03:51;98180.78;;;12.14;61.80
40918;BME280;26644;50.248;19.032;2023-03-20T09:06:56;98179.72;;;12.10;62.16
40918;BME280;26644;50.248;19.032;2023-03-20T09:10:04;98172.38;;;12.24;62.10
40918;BME280;26644;50.248;19.032;2023-03-20T09:13:11;98185.94;;;12.40;62.48
40918;BME280;26644;50.248;19.032;2023-03-20T09:16:16;98189.66;;;12.49;62.59
40918;BME280;26644;50.248;19.032;2023-03-20T09:19:23;98176.41;;;12.51;63.08
40918;BME280;26644;50.248;19.032;2023-03-20T09:22:29;98181.28;;;12.73;62.39
40918;BME280;26644;50.248;19.032;2023-03-20T09:25:34;98192.94;;;12.84;62.49
40918;BME280;26644;50.248;19.032;2023-03-20T09:28:39;98181.38;;;13.01;62.10
40918;BME280;26644;50.248;19.032;2023-03-20T09:31:44;98182.41;;;13.05;62.27
40918;BME280;26644;50.248;19.032;2023-03-20T09:34:52;98184.28;;;13.10;62.87
40918;BME280;26644;50.248;19.032;2023-03-20T09:37:57;98190.00;;;13.14;62.57
40918;BME280;26644;50.248;19.032;2023-03-20T09:41:04;98169.47;;;13.06;62.96
40918;BME280;26644;50.248;19.032;2023-03-20T09:44:17;98183.56;;;13.18;63.27
40918;BME280;26644;50.248;19.032;2023-03-20T09:47:47;98191.38;;;12.97;63.79
40918;BME280;26644;50.248;19.032;2023-03-20T09:51:07;98188.28;;;12.85;64.67
40918;BME280;26644;50.248;19.032;2023-03-20T09:54:30;98185.63;;;12.93;65.29
40918;BME280;26644;50.248;19.032;2023-03-20T09:57:40;98198.06;;;12.91;65.05
40918;BME280;26644;50.248;19.032;2023-03-20T10:00:48;98191.34;;;12.83;65.13
40918;BME280;26644;50.248;19.032;2023-03-20T10:03:57;98185.38;;;12.76;65.67
40918;BME280;26644;50.248;19.032;2023-03-20T10:07:13;98188.28;;;12.85;65.44
40918;BME280;26644;50.248;19.032;2023-03-20T10:10:29;98193.72;;;12.90;65.64
40918;BME280;26644;50.248;19.032;2023-03-20T10:14:11;98181.44;;;12.82;65.45
40918;BME280;26644;50.248;19.032;2023-03-20T10:17:41;98180.00;;;12.85;65.63
40918;BME280;26644;50.248;19.032;2023-03-20T10:20:58;98169.47;;;12.73;65.74
40918;BME280;26644;50.248;19.032;2023-03-20T10:24:16;98176.47;;;12.65;66.10
40918;BME280;26644;50.248;19.032;2023-03-20T10:27:30;98170.28;;;12.54;66.23
40918;BME280;26644;50.248;19.032;2023-03-20T10:30:56;98184.78;;;12.60;66.50
40918;BME280;26644;50.248;19.032;2023-03-20T10:34:29;98189.13;;;12.66;66.29
40918;BME280;26644;50.248;19.032;2023-03-20T10:41:35;98179.53;;;12.64;66.05
40918;BME280;26644;50.248;19.032;2023-03-20T10:44:52;98173.56;;;12.75;66.11
40918;BME280;26644;50.248;19.032;2023-03-20T10:48:08;98179.00;;;12.94;65.61
40918;BME280;26644;50.248;19.032;2023-03-20T10:51:23;98170.09;;;13.17;64.99
40918;BME280;26644;50.248;19.032;2023-03-20T10:54:40;98170.66;;;13.47;64.25
40918;BME280;26644;50.248;19.032;2023-03-20T10:57:53;98153.09;;;13.70;63.21
40918;BME280;26644;50.248;19.032;2023-03-20T11:01:04;98166.41;;;13.96;62.07
40918;BME280;26644;50.248;19.032;2023-03-20T11:04:09;98172.88;;;14.28;61.25
40918;BME280;26644;50.248;19.032;2023-03-20T11:07:22;98172.25;;;14.45;60.42
40918;BME280;26644;50.248;19.032;2023-03-20T11:10:31;98171.44;;;14.67;60.04
40918;BME280;26644;50.248;19.032;2023-03-20T11:13:41;98166.38;;;14.83;58.62
40918;BME280;26644;50.248;19.032;2023-03-20T11:16:51;98162.47;;;14.84;58.19
40918;BME280;26644;50.248;19.032;2023-03-20T11:20:02;98168.88;;;14.71;58.09
40918;BME280;26644;50.248;19.032;2023-03-20T11:23:15;98159.50;;;14.58;58.46
40918;BME280;26644;50.248;19.032;2023-03-20T11:26:35;98149.31;;;14.44;58.56
40918;BME280;26644;50.248;19.032;2023-03-20T11:29:48;98154.84;;;14.44;58.37
40918;BME280;26644;50.248;19.032;2023-03-20T11:32:56;98143.38;;;14.51;58.26
40918;BME280;26644;50.248;19.032;2023-03-20T11:36:11;98130.00;;;14.44;58.06
40918;BME280;26644;50.248;19.032;2023-03-20T11:39:26;98136.81;;;14.61;57.56
40918;BME280;26644;50.248;19.032;2023-03-20T11:42:33;98139.81;;;14.51;57.49
40918;BME280;26644;50.248;19.032;2023-03-20T11:45:44;98137.97;;;14.46;56.99
40918;BME280;26644;50.248;19.032;2023-03-20T11:49:06;98130.06;;;14.53;56.44
40918;BME280;26644;50.248;19.032;2023-03-20T11:52:26;98116.94;;;14.59;56.51
40918;BME280;26644;50.248;19.032;2023-03-20T11:55:34;98120.41;;;14.87;56.22
40918;BME280;26644;50.248;19.032;2023-03-20T11:58:53;98111.44;;;15.13;55.54
40918;BME280;26644;50.248;19.032;2023-03-20T12:02:16;98114.19;;;15.44;54.97
40918;BME280;26644;50.248;19.032;2023-03-20T12:05:30;98120.75;;;15.57;54.22
40918;BME280;26644;50.248;19.032;2023-03-20T12:08:40;98125.38;;;15.71;53.48
40918;BME280;26644;50.248;19.032;2023-03-20T12:11:54;98122.94;;;15.78;53.32
40918;BME280;26644;50.248;19.032;2023-03-20T12:15:12;98123.59;;;15.84;52.87
40918;BME280;26644;50.248;19.032;2023-03-20T12:18:31;98118.91;;;15.84;52.99
40918;BME280;26644;50.248;19.032;2023-03-20T12:21:45;98122.91;;;15.69;53.36
40918;BME280;26644;50.248;19.032;2023-03-20T12:25:04;98112.78;;;15.56;53.57
40918;BME280;26644;50.248;19.032;2023-03-20T12:28:26;98113.44;;;15.53;53.45
40918;BME280;26644;50.248;19.032;2023-03-20T12:31:45;98111.09;;;15.46;53.92
40918;BME280;26644;50.248;19.032;2023-03-20T12:35:03;98105.69;;;15.41;53.87
40918;BME280;26644;50.248;19.032;2023-03-20T12:38:23;98110.38;;;15.32;53.97
40918;BME280;26644;50.248;19.032;2023-03-20T12:41:39;98107.16;;;15.07;54.83
40918;BME280;26644;50.248;19.032;2023-03-20T12:45:03;98106.72;;;14.82;55.31
40918;BME280;26644;50.248;19.032;2023-03-20T12:48:36;98121.44;;;14.69;56.22
40918;BME280;26644;50.248;19.032;2023-03-20T12:52:12;98109.34;;;14.42;56.92
40918;BME280;26644;50.248;19.032;2023-03-20T12:55:34;98114.16;;;14.36;57.42
40918;BME280;26644;50.248;19.032;2023-03-20T12:58:56;98113.31;;;14.50;57.59
40918;BME280;26644;50.248;19.032;2023-03-20T13:02:25;98110.63;;;14.58;57.53
40918;BME280;26644;50.248;19.032;2023-03-20T13:05:46;98120.91;;;14.67;57.07
40918;BME280;26644;50.248;19.032;2023-03-20T13:13:09;98110.94;;;14.57;56.94
40918;BME280;26644;50.248;19.032;2023-03-20T13:16:33;98106.22;;;14.57;56.92
40918;BME280;26644;50.248;19.032;2023-03-20T13:20:01;98112.53;;;14.58;57.18
40918;BME280;26644;50.248;19.032;2023-03-20T13:23:24;98093.53;;;14.56;57.09
40918;BME280;26644;50.248;19.032;2023-03-20T13:26:43;98102.56;;;14.71;56.77
40918;BME280;26644;50.248;19.032;2023-03-20T13:29:59;98102.13;;;14.77;56.96
40918;BME280;26644;50.248;19.032;2023-03-20T13:33:26;98098.72;;;14.81;56.72
40918;BME280;26644;50.248;19.032;2023-03-20T13:36:51;98099.16;;;14.74;56.45
40918;BME280;26644;50.248;19.032;2023-03-20T13:40:15;98082.22;;;14.67;57.17
40918;BME280;26644;50.248;19.032;2023-03-20T13:43:32;98088.75;;;14.71;57.53
40918;BME280;26644;50.248;19.032;2023-03-20T13:46:44;98098.81;;;14.67;57.40
40918;BME280;26644;50.248;19.032;2023-03-20T13:50:04;98080.47;;;14.48;58.22
40918;BME280;26644;50.248;19.032;2023-03-20T13:53:41;98092.03;;;14.50;58.24
40918;BME280;26644;50.248;19.032;2023-03-20T13:57:14;98098.16;;;14.47;58.41
40918;BME280;26644;50.248;19.032;2023-03-20T14:00:37;98091.75;;;14.38;58.52
40918;BME280;26644;50.248;19.032;2023-03-20T14:03:52;98089.81;;;14.38;58.61
40918;BME280;26644;50.248;19.032;2023-03-20T14:06:59;98088.50;;;14.36;58.64
40918;BME280;26644;50.248;19.032;2023-03-20T14:10:37;98091.53;;;14.48;58.53
40918;BME280;26644;50.248;19.032;2023-03-20T14:13:46;98094.50;;;14.52;58.50
40918;BME280;26644;50.248;19.032;2023-03-20T14:17:15;98087.56;;;14.40;58.60
40918;BME280;26644;50.248;19.032;2023-03-20T14:20:29;98079.69;;;14.34;58.90
40918;BME280;26644;50.248;19.032;2023-03-20T14:23:38;98089.81;;;14.38;59.25
40918;BME280;26644;50.248;19.032;2023-03-20T14:26:51;98091.41;;;14.39;59.50
40918;BME280;26644;50.248;19.032;2023-03-20T14:33:58;98088.91;;;14.29;59.50
40918;BME280;26644;50.248;19.032;2023-03-20T14:37:32;98083.50;;;14.24;59.37
40918;BME280;26644;50.248;19.032;2023-03-20T14:40:51;98087.41;;;14.23;59.26
40918;BME280;26644;50.248;19.032;2023-03-20T14:44:22;98096.81;;;14.22;59.63
40918;BME280;26644;50.248;19.032;2023-03-20T14:47:47;98082.53;;;14.06;59.99
40918;BME280;26644;50.248;19.032;2023-03-20T14:51:26;98091.78;;;14.01;60.66
40918;BME280;26644;50.248;19.032;2023-03-20T14:54:41;98101.59;;;13.93;62.27
40918;BME280;26644;50.248;19.032;2023-03-20T14:57:54;98084.47;;;13.69;63.40
40918;BME280;26644;50.248;19.032;2023-03-20T15:01:02;98097.13;;;13.70;64.15
40918;BME280;26644;50.248;19.032;2023-03-20T15:04:21;98083.16;;;13.52;65.52
40918;BME280;26644;50.248;19.032;2023-03-20T15:07:38;98083.25;;;13.47;66.70
40918;BME280;26644;50.248;19.032;2023-03-20T15:10:46;98074.16;;;13.33;67.58
40918;BME280;26644;50.248;19.032;2023-03-20T15:13:58;98072.31;;;13.28;68.96
40918;BME280;26644;50.248;19.032;2023-03-20T15:17:15;98061.66;;;13.21;69.79
40918;BME280;26644;50.248;19.032;2023-03-20T15:20:25;98060.34;;;13.19;69.84
40918;BME280;26644;50.248;19.032;2023-03-20T15:23:35;98057.72;;;13.14;70.53
40918;BME280;26644;50.248;19.032;2023-03-20T15:26:42;98067.28;;;13.16;69.63
40918;BME280;26644;50.248;19.032;2023-03-20T15:29:50;98052.06;;;13.05;69.77
40918;BME280;26644;50.248;19.032;2023-03-20T15:32:58;98075.66;;;13.11;70.41
40918;BME280;26644;50.248;19.032;2023-03-20T15:36:08;98060.66;;;13.03;69.99
40918;BME280;26644;50.248;19.032;2023-03-20T15:39:24;98066.88;;;13.09;70.79
40918;BME280;26644;50.248;19.032;2023-03-20T15:42:30;98075.75;;;13.06;71.02
40918;BME280;26644;50.248;19.032;2023-03-20T15:45:40;98068.09;;;13.03;71.36
40918;BME280;26644;50.248;19.032;2023-03-20T15:48:47;98059.31;;;13.01;71.83
40918;BME280;26644;50.248;19.032;2023-03-20T15:51:57;98064.22;;;13.04;71.58
40918;BME280;26644;50.248;19.032;2023-03-20T15:55:13;98065.34;;;13.03;72.30
40918;BME280;26644;50.248;19.032;2023-03-20T15:58:24;98068.72;;;13.00;72.74
40918;BME280;26644;50.248;19.032;2023-03-20T16:01:33;98068.22;;;12.98;73.31
40918;BME280;26644;50.248;19.032;2023-03-20T16:04:45;98062.47;;;12.94;73.52
40918;BME280;26644;50.248;19.032;2023-03-20T16:07:52;98053.28;;;12.85;73.57
40918;BME280;26644;50.248;19.032;2023-03-20T16:11:03;98064.88;;;12.82;73.39
40918;BME280;26644;50.248;19.032;2023-03-20T16:14:15;98049.25;;;12.63;73.60
40918;BME280;26644;50.248;19.032;2023-03-20T16:17:24;98052.69;;;12.55;73.70
40918;BME280;26644;50.248;19.032;2023-03-20T16:20:35;98064.81;;;12.54;73.94
40918;BME280;26644;50.248;19.032;2023-03-20T16:23:48;98062.75;;;12.45;73.52
40918;BME280;26644;50.248;19.032;2023-03-20T16:27:04;98066.94;;;12.43;74.20
40918;BME280;26644;50.248;19.032;2023-03-20T16:30:15;98066.13;;;12.42;73.88
40918;BME280;26644;50.248;19.032;2023-03-20T16:33:23;98069.38;;;12.44;73.82
40918;BME280;26644;50.248;19.032;2023-03-20T16:36:30;98065.50;;;12.45;74.30
40918;BME280;26644;50.248;19.032;2023-03-20T16:39:36;98059.91;;;12.37;74.12
40918;BME280;26644;50.248;19.032;2023-03-20T16:42:45;98066.63;;;12.44;74.35
40918;BME280;26644;50.248;19.032;2023-03-20T16:45:53;98075.72;;;12.45;74.17
40918;BME280;26644;50.248;19.032;2023-03-20T16:52:57;98080.50;;;12.39;75.10
40918;BME280;26644;50.248;19.032;2023-03-20T16:56:05;98081.09;;;12.36;75.47
40918;BME280;26644;50.248;19.032;2023-03-20T16:59:19;98085.06;;;12.30;75.57
40918;BME280;26644;50.248;19.032;2023-03-20T17:02:29;98076.22;;;12.14;75.50
40918;BME280;26644;50.248;19.032;2023-03-20T17:05:52;98090.13;;;12.04;76.34
40918;BME280;26644;50.248;19.032;2023-03-20T17:12:31;98091.09;;;11.89;76.18
40918;BME280;26644;50.248;19.032;2023-03-20T17:15:41;98086.28;;;11.81;76.49
40918;BME280;26644;50.248;19.032;2023-03-20T17:18:58;98083.59;;;11.75;76.01
40918;BME280;26644;50.248;19.032;2023-03-20T17:22:10;98083.09;;;11.73;76.21